Time;durP1;ratioP1;P1;durP2;ratioP2;P2;SDS_P1;SDS_P2;PMS_P1;PMS_P2;Temp;Humidity;BMP_temperature;BMP_pressure;BME280_temperature;BME280_humidity;BME280_pressure;Samples;Min_cycle;Max_cycle;Signal;HPM_P1;HPM_P2
2021/11/16 05:04:23;;;;;;;50.80;32.93;;;8.10;99.90;;;;;;5017051;28;20441;-67
2021/11/16 05:06:53;;;;;;;41.90;28.67;;;8.10;99.90;;;;;;5017697;28;20453;-68
2021/11/16 05:09:20;;;;;;;49.10;30.10;;;8.10;99.90;;;;;;5018408;28;20449;-68
2021/11/16 05:11:47;;;;;;;50.87;27.80;;;8.00;99.90;;;;;;5019628;28;20509;-68
2021/11/16 05:14:13;;;;;;;57.23;28.37;;;8.00;99.90;;;;;;5029121;28;20448;-68
2021/11/16 05:16:41;;;;;;;55.83;29.83;;;7.90;99.90;;;;;;5017822;28;20457;-67
2021/11/16 05:19:08;;;;;;;55.23;28.70;;;7.90;99.90;;;;;;5020978;28;20489;-67
2021/11/16 05:21:35;;;;;;;49.60;31.23;;;7.90;99.90;;;;;;5017244;28;20469;-68
2021/11/16 05:24:02;;;;;;;46.70;28.57;;;7.90;99.90;;;;;;5016885;28;20453;-68
2021/11/16 05:26:30;;;;;;;55.93;31.43;;;7.90;99.90;;;;;;5017273;28;20461;-67
2021/11/16 05:28:57;;;;;;;47.37;30.13;;;7.90;99.90;;;;;;5016506;28;20544;-67
2021/11/16 05:31:24;;;;;;;51.50;29.47;;;8.00;99.90;;;;;;5016725;28;20479;-67
2021/11/16 05:33:54;;;;;;;52.30;29.40;;;8.00;99.90;;;;;;5017205;28;20453;-67
2021/11/16 05:36:22;;;;;;;52.50;28.57;;;8.00;99.90;;;;;;5017284;28;20455;-68
2021/11/16 05:38:48;;;;;;;47.50;29.23;;;8.00;99.90;;;;;;5017002;28;20484;-68
2021/11/16 05:41:17;;;;;;;53.67;30.10;;;7.90;99.90;;;;;;5016822;28;20845;-68
2021/11/16 05:43:46;;;;;;;47.23;29.37;;;7.90;99.90;;;;;;5017257;28;20524;-68
2021/11/16 05:46:14;;;;;;;55.67;31.57;;;7.90;99.90;;;;;;5017015;28;20472;-67
2021/11/16 05:48:42;;;;;;;45.73;26.70;;;7.80;99.90;;;;;;5017634;28;20457;-69
2021/11/16 05:51:11;;;;;;;44.43;27.20;;;8.00;99.90;;;;;;5017318;28;20477;-70
2021/11/16 05:53:40;;;;;;;49.90;29.07;;;8.30;99.90;;;;;;5017314;28;20500;-68
2021/11/16 05:56:07;;;;;;;48.77;29.03;;;8.70;99.90;;;;;;5016607;28;20457;-68
2021/11/16 05:58:34;;;;;;;37.73;25.17;;;8.90;99.90;;;;;;5017266;28;20836;-68
2021/11/16 06:01:01;;;;;;;46.20;28.13;;;8.90;99.90;;;;;;5016740;28;20524;-68
2021/11/16 06:03:28;;;;;;;42.03;27.70;;;8.90;99.90;;;;;;5019491;28;20470;-67
2021/11/16 06:05:55;;;;;;;42.87;26.60;;;9.00;99.90;;;;;;5027410;28;20453;-67
2021/11/16 06:08:25;;;;;;;40.47;26.73;;;8.90;99.90;;;;;;5025344;28;20454;-67
2021/11/16 06:10:52;;;;;;;41.07;25.33;;;8.80;99.90;;;;;;5019305;28;20473;-67
2021/11/16 06:13:19;;;;;;;40.87;26.73;;;8.80;99.90;;;;;;5021163;28;20458;-67
2021/11/16 06:15:46;;;;;;;39.77;26.00;;;8.70;99.90;;;;;;5015731;28;20801;-67
2021/11/16 06:18:14;;;;;;;38.37;25.93;;;8.60;99.90;;;;;;5015891;28;20940;-67
2021/11/16 06:20:44;;;;;;;42.83;26.83;;;8.60;99.90;;;;;;5015581;28;20996;-67
2021/11/16 06:23:11;;;;;;;37.17;24.77;;;8.50;99.90;;;;;;5015109;28;20453;-67
2021/11/16 06:25:40;;;;;;;47.70;26.13;;;8.40;99.90;;;;;;5015282;28;20531;-66
2021/11/16 06:28:08;;;;;;;47.97;28.40;;;8.20;99.90;;;;;;5015288;28;20453;-67
2021/11/16 06:30:35;;;;;;;41.97;25.80;;;8.00;99.90;;;;;;5015455;28;20803;-66
2021/11/16 06:33:02;;;;;;;39.13;24.87;;;8.00;99.90;;;;;;5014857;28;20453;-67
2021/11/16 06:35:29;;;;;;;38.57;24.70;;;8.00;99.90;;;;;;5014314;28;20489;-66
2021/11/16 06:37:56;;;;;;;42.73;25.20;;;7.90;99.90;;;;;;5016420;28;20457;-65
2021/11/16 06:40:23;;;;;;;41.87;26.40;;;7.80;99.90;;;;;;5035932;28;20462;-66
2021/11/16 06:42:51;;;;;;;39.87;24.67;;;7.80;99.90;;;;;;5037224;28;20430;-66
2021/11/16 06:45:18;;;;;;;40.33;23.83;;;7.80;99.90;;;;;;5026573;28;20460;-65
2021/11/16 06:47:44;;;;;;;44.30;25.60;;;7.80;99.90;;;;;;5015102;28;20450;-66
2021/11/16 06:50:12;;;;;;;36.50;23.77;;;7.80;99.90;;;;;;5014952;28;20457;-66
2021/11/16 06:52:39;;;;;;;38.60;22.27;;;7.80;99.90;;;;;;5014789;28;20968;-66
2021/11/16 06:55:08;;;;;;;41.17;26.27;;;7.80;99.90;;;;;;5015099;28;20468;-66
2021/11/16 06:57:36;;;;;;;37.77;22.87;;;7.60;99.90;;;;;;5015033;28;20457;-66
2021/11/16 07:00:08;;;;;;;39.93;25.17;;;7.60;99.90;;;;;;5015316;28;20489;-66
2021/11/16 07:02:35;;;;;;;35.90;22.80;;;7.60;99.90;;;;;;5023318;28;20484;-67
2021/11/16 07:05:10;;;;;;;41.67;25.57;;;7.60;99.90;;;;;;5025669;28;20445;-67
2021/11/16 07:07:42;;;;;;;38.77;24.40;;;7.60;99.90;;;;;;5019946;28;20472;-67
2021/11/16 07:10:11;;;;;;;37.20;23.73;;;7.70;99.90;;;;;;5015465;28;20438;-67
2021/11/16 07:12:38;;;;;;;41.07;25.57;;;7.80;99.90;;;;;;5014571;28;20448;-67
2021/11/16 07:15:07;;;;;;;39.47;23.60;;;7.80;99.90;;;;;;5014639;28;20444;-66
2021/11/16 07:17:34;;;;;;;44.20;24.83;;;7.80;99.90;;;;;;5015128;28;20449;-66
2021/11/16 07:20:01;;;;;;;40.23;23.90;;;7.80;99.90;;;;;;5014863;28;20465;-66
2021/11/16 07:22:30;;;;;;;34.93;23.13;;;7.90;99.90;;;;;;5014639;28;20481;-66
2021/11/16 07:25:02;;;;;;;37.53;23.83;;;7.90;99.90;;;;;;5014332;28;20936;-65
2021/11/16 07:27:33;;;;;;;39.27;25.20;;;7.90;99.90;;;;;;5017212;28;20442;-66
2021/11/16 07:30:00;;;;;;;37.03;23.67;;;7.90;99.90;;;;;;5018576;28;20433;-67
2021/11/16 07:32:30;;;;;;;38.43;23.77;;;7.90;99.90;;;;;;5018190;28;20473;-66
2021/11/16 07:34:59;;;;;;;35.20;22.60;;;7.80;99.90;;;;;;5017874;28;20442;-66
2021/11/16 07:37:28;;;;;;;37.70;23.53;;;7.80;99.90;;;;;;5025888;28;20473;-66
2021/11/16 07:39:56;;;;;;;37.60;22.57;;;7.80;99.90;;;;;;5037608;28;20474;-66
2021/11/16 07:42:25;;;;;;;37.13;24.20;;;7.80;99.90;;;;;;5018762;28;20473;-67
2021/11/16 07:45:10;;;;;;;39.57;23.57;;;7.70;99.90;;;;;;5028527;28;21026;-67
2021/11/16 07:47:45;;;;;;;31.03;21.17;;;7.70;99.90;;;;;;5022652;28;20438;-67
2021/11/16 07:50:16;;;;;;;32.10;21.03;;;7.80;99.90;;;;;;5018103;28;20442;-66
2021/11/16 07:52:45;;;;;;;31.50;20.80;;;7.80;99.90;;;;;;5020240;28;20464;-66
2021/11/16 07:55:22;;;;;;;29.33;20.33;;;7.90;99.90;;;;;;5019028;28;20460;-66
2021/11/16 07:57:50;;;;;;;27.60;18.90;;;7.90;99.90;;;;;;5017373;28;20437;-66
2021/11/16 08:00:20;;;;;;;25.97;19.50;;;7.80;99.90;;;;;;5016985;28;20588;-67
2021/11/16 08:02:54;;;;;;;29.10;20.07;;;7.80;99.90;;;;;;5016994;28;20448;-66
2021/11/16 08:05:33;;;;;;;26.87;18.97;;;7.90;99.90;;;;;;5017814;28;20437;-67
2021/11/16 08:08:19;;;;;;;30.80;19.37;;;7.90;99.90;;;;;;5017449;28;20445;-67
2021/11/16 08:10:49;;;;;;;31.80;20.47;;;7.70;99.90;;;;;;5017210;28;20469;-67
2021/11/16 08:13:20;;;;;;;32.43;20.10;;;7.80;99.90;;;;;;5017094;28;20460;-66
2021/11/16 08:15:47;;;;;;;34.50;20.17;;;7.90;99.90;;;;;;5016853;28;20438;-65
2021/11/16 08:18:15;;;;;;;28.27;19.60;;;7.90;99.90;;;;;;5016652;28;20456;-65
2021/11/16 08:20:42;;;;;;;31.13;19.70;;;8.00;99.90;;;;;;5016573;28;20521;-65
2021/11/16 08:23:09;;;;;;;24.20;18.13;;;8.00;99.90;;;;;;5016664;28;20457;-65
2021/11/16 08:25:36;;;;;;;26.57;18.60;;;8.10;99.90;;;;;;5017027;28;20459;-66
2021/11/16 08:28:05;;;;;;;27.27;19.37;;;8.10;99.90;;;;;;5017278;28;20496;-65
2021/11/16 08:30:34;;;;;;;28.23;20.30;;;8.00;99.90;;;;;;5017029;28;20453;-66
2021/11/16 08:33:02;;;;;;;29.97;22.23;;;8.00;99.90;;;;;;5017111;28;20458;-65
2021/11/16 08:35:32;;;;;;;30.07;20.33;;;8.10;99.90;;;;;;5017436;28;20460;-65
2021/11/16 08:38:02;;;;;;;24.20;18.53;;;8.10;99.90;;;;;;5017120;28;20456;-67
2021/11/16 08:40:33;;;;;;;25.27;17.87;;;8.20;99.90;;;;;;5016752;28;20556;-66
2021/11/16 08:43:03;;;;;;;29.40;19.63;;;8.20;99.90;;;;;;5017154;28;20841;-67
2021/11/16 08:45:32;;;;;;;25.50;18.57;;;8.20;99.90;;;;;;5017327;28;20475;-67
2021/11/16 08:48:07;;;;;;;26.90;19.03;;;8.20;99.90;;;;;;5016626;28;20954;-66
2021/11/16 08:50:39;;;;;;;28.57;19.40;;;8.20;99.90;;;;;;5026526;28;20514;-66
2021/11/16 08:53:09;;;;;;;25.97;18.97;;;8.20;99.90;;;;;;5017643;28;20847;-66
2021/11/16 08:55:38;;;;;;;28.63;19.80;;;8.30;99.90;;;;;;5016093;28;20461;-66
2021/11/16 08:58:08;;;;;;;31.73;20.70;;;8.30;99.90;;;;;;5016456;28;21072;-66
2021/11/16 09:00:38;;;;;;;28.67;18.83;;;8.40;99.90;;;;;;5024756;28;20477;-66
2021/11/16 09:03:09;;;;;;;27.50;17.20;;;8.40;99.90;;;;;;5028364;28;20901;-66
2021/11/16 09:05:41;;;;;;;24.70;17.93;;;8.20;99.90;;;;;;5016714;28;20433;-66
2021/11/16 09:08:14;;;;;;;30.67;18.10;;;8.20;99.90;;;;;;5018517;28;20862;-66
2021/11/16 09:10:44;;;;;;;28.70;17.77;;;8.20;99.90;;;;;;5027199;28;20819;-66
2021/11/16 09:13:13;;;;;;;25.50;18.03;;;8.20;99.90;;;;;;5024808;28;20807;-66
2021/11/16 09:15:42;;;;;;;30.53;18.00;;;8.20;99.90;;;;;;5017300;28;20832;-66
2021/11/16 09:18:12;;;;;;;24.67;17.40;;;8.30;99.90;;;;;;5020847;28;20457;-67
2021/11/16 09:20:41;;;;;;;24.87;17.97;;;8.20;99.90;;;;;;5018080;28;20474;-66
2021/11/16 09:23:09;;;;;;;30.97;19.10;;;8.30;99.90;;;;;;5015858;28;20460;-64
2021/11/16 09:25:39;;;;;;;25.30;17.67;;;8.30;99.90;;;;;;5015401;28;20457;-64
2021/11/16 09:28:30;;;;;;;26.07;17.67;;;8.20;99.90;;;;;;5015308;28;20551;-66
2021/11/16 09:30:57;;;;;;;24.37;17.70;;;8.20;99.90;;;;;;5015688;28;20813;-66
2021/11/16 09:33:24;;;;;;;26.70;18.97;;;8.30;99.90;;;;;;5023747;28;20461;-65
2021/11/16 09:35:57;;;;;;;24.70;17.80;;;8.30;99.90;;;;;;5016094;28;20464;-65
2021/11/16 09:38:47;;;;;;;26.17;17.93;;;8.30;99.90;;;;;;5015874;28;20505;-65
2021/11/16 09:41:22;;;;;;;32.67;19.73;;;8.40;99.90;;;;;;5015339;28;20984;-68
2021/11/16 09:43:57;;;;;;;27.57;19.93;;;8.50;99.90;;;;;;5016050;28;20921;-68
2021/11/16 09:46:24;;;;;;;29.20;18.63;;;8.50;99.90;;;;;;5015378;28;20449;-67
2021/11/16 09:48:57;;;;;;;24.00;16.60;;;8.50;99.90;;;;;;5015699;28;20453;-67
2021/11/16 09:51:26;;;;;;;25.67;17.93;;;8.50;99.90;;;;;;5015433;28;20473;-66
2021/11/16 09:54:02;;;;;;;22.40;17.27;;;8.50;99.90;;;;;;5015404;28;20449;-68
2021/11/16 09:56:30;;;;;;;30.13;18.30;;;8.60;99.90;;;;;;5015582;28;20935;-67
2021/11/16 09:58:59;;;;;;;29.00;18.20;;;8.60;99.90;;;;;;5015576;28;20552;-68
2021/11/16 10:01:29;;;;;;;25.00;17.20;;;8.60;99.90;;;;;;5015597;28;20481;-68
2021/11/16 10:04:18;;;;;;;25.13;16.20;;;8.50;99.90;;;;;;5015299;28;20438;-69
2021/11/16 10:06:48;;;;;;;24.23;15.97;;;8.50;99.90;;;;;;5016018;28;20500;-68
2021/11/16 10:09:15;;;;;;;24.23;16.90;;;8.50;99.90;;;;;;5025023;28;20563;-68
2021/11/16 10:11:44;;;;;;;29.03;17.63;;;8.50;99.90;;;;;;5032270;28;20469;-68
2021/11/16 10:14:17;;;;;;;26.30;16.70;;;8.50;99.90;;;;;;5016306;28;20917;-66
2021/11/16 10:16:46;;;;;;;20.63;14.37;;;8.60;99.90;;;;;;5016178;28;20473;-68
2021/11/16 10:19:13;;;;;;;25.57;17.70;;;8.80;99.90;;;;;;5016034;28;20460;-68
2021/11/16 10:21:40;;;;;;;22.37;16.60;;;8.80;99.90;;;;;;5014989;28;20512;-68
2021/11/16 10:24:31;;;;;;;24.03;16.20;;;8.90;99.90;;;;;;5016065;28;20468;-68
2021/11/16 10:27:00;;;;;;;29.70;16.27;;;8.90;99.90;;;;;;5015608;28;20438;-68
2021/11/16 10:29:27;;;;;;;23.80;16.53;;;8.90;99.90;;;;;;5015564;28;20463;-68
2021/11/16 10:31:54;;;;;;;24.93;17.13;;;8.90;99.90;;;;;;5015971;28;20492;-68
2021/11/16 10:34:37;;;;;;;24.70;16.73;;;9.00;99.90;;;;;;5015893;28;20544;-67
2021/11/16 10:37:05;;;;;;;23.40;15.60;;;8.90;99.90;;;;;;5016113;28;20841;-68
2021/11/16 10:39:34;;;;;;;24.60;15.97;;;8.90;99.90;;;;;;5015719;28;20496;-68
2021/11/16 10:42:04;;;;;;;25.63;16.53;;;8.90;99.90;;;;;;5016466;28;20896;-68
2021/11/16 10:44:36;;;;;;;26.77;16.77;;;9.00;99.90;;;;;;5016431;28;20453;-68
2021/11/16 10:47:04;;;;;;;26.70;17.07;;;8.90;99.90;;;;;;5016554;28;21019;-68
2021/11/16 10:49:31;;;;;;;22.50;16.37;;;8.90;99.90;;;;;;5017274;28;21010;-68
2021/11/16 10:51:58;;;;;;;24.60;16.17;;;8.80;99.90;;;;;;5030873;28;20496;-68
2021/11/16 10:54:25;;;;;;;21.93;14.93;;;8.70;99.90;;;;;;5020331;28;20457;-68
2021/11/16 10:57:00;;;;;;;22.23;14.43;;;8.80;99.90;;;;;;5019601;28;20492;-68
2021/11/16 10:59:31;;;;;;;22.83;14.83;;;8.80;99.90;;;;;;5025161;28;20479;-68
2021/11/16 11:01:59;;;;;;;19.53;13.30;;;8.80;99.90;;;;;;5031687;28;20492;-68
2021/11/16 11:04:28;;;;;;;20.83;13.00;;;8.80;99.90;;;;;;5021714;28;20479;-68
2021/11/16 11:06:56;;;;;;;19.53;13.23;;;8.80;99.90;;;;;;5018286;28;20937;-68
2021/11/16 11:09:24;;;;;;;19.03;12.80;;;8.80;99.90;;;;;;5031019;28;20449;-68
2021/11/16 11:11:54;;;;;;;20.73;12.93;;;8.80;99.90;;;;;;5020654;28;20469;-69
2021/11/16 11:14:25;;;;;;;22.70;13.33;;;8.80;99.90;;;;;;5018487;28;20503;-69
2021/11/16 11:16:54;;;;;;;15.40;11.43;;;8.80;99.90;;;;;;5018438;28;20438;-67
2021/11/16 11:19:25;;;;;;;17.50;11.83;;;8.90;99.90;;;;;;5017767;28;20453;-68
2021/11/16 11:21:57;;;;;;;20.03;13.50;;;8.90;99.90;;;;;;5017443;28;20535;-65
2021/11/16 11:24:28;;;;;;;18.23;12.30;;;8.90;99.90;;;;;;5018488;28;20541;-65
2021/11/16 11:26:58;;;;;;;15.17;11.60;;;8.90;99.90;;;;;;5017863;28;20433;-65
2021/11/16 11:29:30;;;;;;;17.60;11.63;;;8.80;99.90;;;;;;5017616;28;20488;-65
2021/11/16 11:32:02;;;;;;;19.40;11.70;;;8.80;99.90;;;;;;5017414;28;20513;-65
2021/11/16 11:34:36;;;;;;;18.90;12.40;;;8.80;99.90;;;;;;5017556;28;20444;-65
2021/11/16 11:37:07;;;;;;;16.40;10.90;;;8.80;99.90;;;;;;5019873;28;20438;-66
2021/11/16 11:39:33;;;;;;;17.70;10.70;;;8.70;99.90;;;;;;5020687;28;20441;-65
2021/11/16 11:42:01;;;;;;;14.83;10.67;;;8.60;99.90;;;;;;5017804;28;20487;-65
2021/11/16 11:44:38;;;;;;;13.83;10.53;;;8.60;99.90;;;;;;5017989;28;20457;-66
2021/11/16 11:47:05;;;;;;;13.10;9.77;;;8.60;99.90;;;;;;5017651;28;20438;-66
2021/11/16 11:49:33;;;;;;;12.67;10.10;;;8.50;99.90;;;;;;5017626;28;20536;-66
2021/11/16 11:52:02;;;;;;;14.83;10.00;;;8.30;99.90;;;;;;5017964;28;20477;-66
2021/11/16 11:54:29;;;;;;;11.63;9.10;;;8.30;99.90;;;;;;5017678;28;20456;-67
2021/11/16 11:56:56;;;;;;;15.00;10.50;;;8.30;99.90;;;;;;5017223;28;20459;-65
2021/11/16 11:59:24;;;;;;;8.40;7.50;;;8.30;99.90;;;;;;5017254;28;20454;-67
2021/11/16 12:01:56;;;;;;;10.97;8.43;;;8.20;99.90;;;;;;5018462;28;20905;-66
2021/11/16 12:04:23;;;;;;;7.77;6.97;;;8.10;99.90;;;;;;5019641;28;20441;-65
2021/11/16 12:06:53;;;;;;;13.90;9.40;;;8.10;99.90;;;;;;5018456;28;20971;-65
2021/11/16 12:09:21;;;;;;;16.23;12.10;;;8.00;99.90;;;;;;5018540;28;20493;-66
2021/11/16 12:11:49;;;;;;;9.43;7.47;;;8.10;99.90;;;;;;5018064;28;20481;-67
2021/11/16 12:14:38;;;;;;;8.97;7.77;;;8.10;99.90;;;;;;5016586;28;20453;-66
2021/11/16 12:17:12;;;;;;;10.40;8.17;;;8.20;99.90;;;;;;5018228;28;20540;-66
2021/11/16 12:19:41;;;;;;;8.50;6.50;;;8.30;99.90;;;;;;5023312;28;20524;-66
2021/11/16 12:22:23;;;;;;;8.00;7.13;;;8.20;99.90;;;;;;5023145;28;20492;-66
2021/11/16 12:24:53;;;;;;;8.53;7.17;;;8.30;99.90;;;;;;5027421;28;20465;-67
2021/11/16 12:27:23;;;;;;;9.73;7.37;;;8.20;99.90;;;;;;5017985;28;20457;-66
2021/11/16 12:29:51;;;;;;;8.90;7.40;;;8.10;99.90;;;;;;5018351;28;20441;-66
2021/11/16 12:32:22;;;;;;;9.67;8.40;;;8.00;99.90;;;;;;5022598;28;20473;-66
2021/11/16 12:34:52;;;;;;;7.33;6.37;;;8.10;99.90;;;;;;5031234;28;20422;-66
2021/11/16 12:37:39;;;;;;;10.70;8.43;;;8.10;99.90;;;;;;5037502;28;20434;-66
2021/11/16 12:40:18;;;;;;;10.87;7.30;;;8.10;99.90;;;;;;5025751;28;20930;-66
2021/11/16 12:43:17;;;;;;;11.40;8.00;;;8.10;99.90;;;;;;5017455;28;20872;-66
2021/11/16 12:45:46;;;;;;;10.73;7.10;;;8.10;99.90;;;;;;5017817;28;20925;-66
2021/11/16 12:48:16;;;;;;;9.13;7.00;;;8.20;99.90;;;;;;5018187;28;20461;-67
2021/11/16 12:51:09;;;;;;;8.97;7.10;;;8.20;99.90;;;;;;5017363;28;20490;-66
2021/11/16 12:54:02;;;;;;;9.27;6.90;;;8.10;99.90;;;;;;5020201;28;20443;-66
2021/11/16 12:57:01;;;;;;;8.87;7.43;;;8.10;99.90;;;;;;5011119;28;20460;-67
2021/11/16 12:59:49;;;;;;;8.50;7.40;;;8.20;99.90;;;;;;5019811;28;20951;-68
2021/11/16 13:02:23;;;;;;;10.20;8.50;;;8.20;99.90;;;;;;5017505;28;20488;-69
2021/11/16 13:04:55;;;;;;;11.07;8.30;;;8.20;99.90;;;;;;5016415;28;20979;-68
2021/11/16 13:07:25;;;;;;;9.83;8.30;;;8.20;99.90;;;;;;5016927;28;20441;-68
2021/11/16 13:09:54;;;;;;;9.13;7.90;;;8.20;99.90;;;;;;5016232;28;20474;-68
2021/11/16 13:12:44;;;;;;;10.70;7.60;;;8.30;99.90;;;;;;5016671;28;20481;-68
2021/11/16 13:15:17;;;;;;;11.03;8.40;;;8.30;99.90;;;;;;5014045;28;20461;-68
2021/11/16 13:17:50;;;;;;;10.27;9.00;;;8.30;99.90;;;;;;5017122;28;20497;-68
2021/11/16 13:20:28;;;;;;;10.20;7.60;;;8.60;99.90;;;;;;5016420;28;20437;-67
2021/11/16 13:22:58;;;;;;;9.33;8.43;;;8.90;99.90;;;;;;5016881;28;20829;-67
2021/11/16 13:25:39;;;;;;;11.00;7.63;;;8.80;99.90;;;;;;5028675;28;20485;-68
2021/11/16 13:28:07;;;;;;;10.87;8.70;;;8.80;99.90;;;;;;5021496;28;20453;-68
2021/11/16 13:30:34;;;;;;;10.50;8.13;;;8.80;99.90;;;;;;5019365;28;20480;-69
2021/11/16 13:33:39;;;;;;;8.10;7.13;;;8.80;99.90;;;;;;5033078;28;20439;-69
2021/11/16 13:36:08;;;;;;;8.70;7.50;;;8.80;99.90;;;;;;5018076;28;20867;-67
2021/11/16 13:39:00;;;;;;;10.17;7.50;;;8.80;99.90;;;;;;5018285;28;20901;-66
2021/11/16 13:41:46;;;;;;;10.13;7.00;;;8.80;99.90;;;;;;5017136;28;20481;-66
2021/11/16 13:44:16;;;;;;;10.63;8.40;;;8.80;99.90;;;;;;5016496;28;20438;-66
2021/11/16 13:46:45;;;;;;;8.67;7.23;;;8.80;99.90;;;;;;5016620;28;20444;-66
2021/11/16 13:49:17;;;;;;;7.90;6.60;;;8.80;99.90;;;;;;5016592;28;20457;-66
2021/11/16 13:51:46;;;;;;;12.20;8.87;;;8.80;99.90;;;;;;5016020;28;20474;-66
2021/11/16 13:54:12;;;;;;;9.40;8.17;;;8.80;99.90;;;;;;5020935;28;20484;-67
2021/11/16 13:56:39;;;;;;;11.37;8.63;;;8.80;99.90;;;;;;5036144;28;20445;-67
2021/11/16 13:59:14;;;;;;;10.13;8.40;;;8.70;99.90;;;;;;5021302;28;20480;-66
2021/11/16 14:01:41;;;;;;;10.87;9.03;;;8.80;99.90;;;;;;5014972;28;20496;-67
2021/11/16 14:04:10;;;;;;;10.43;8.70;;;8.70;99.90;;;;;;5015193;28;20460;-66
2021/11/16 14:06:36;;;;;;;10.00;8.43;;;8.70;99.90;;;;;;5015250;28;20560;-66
2021/11/16 14:09:18;;;;;;;10.67;8.33;;;8.70;99.90;;;;;;5015158;28;20464;-66
2021/11/16 14:11:52;;;;;;;10.60;8.13;;;8.70;99.90;;;;;;5015532;28;20469;-67
2021/11/16 14:14:21;;;;;;;9.30;7.60;;;8.70;99.90;;;;;;5015248;28;20451;-68
2021/11/16 14:16:48;;;;;;;8.37;7.17;;;8.70;99.90;;;;;;5015119;28;20525;-67
2021/11/16 14:19:16;;;;;;;8.87;7.00;;;8.70;99.90;;;;;;5015233;28;20453;-66
2021/11/16 14:21:45;;;;;;;9.60;7.50;;;8.70;99.90;;;;;;5015020;28;20536;-66
2021/11/16 14:24:14;;;;;;;9.50;7.60;;;8.70;99.90;;;;;;5015288;28;20501;-66
2021/11/16 14:26:42;;;;;;;11.87;8.63;;;8.60;99.90;;;;;;5014556;28;20944;-66
2021/11/16 14:29:15;;;;;;;9.47;8.10;;;8.50;99.90;;;;;;5015261;28;20507;-66
2021/11/16 14:31:42;;;;;;;9.87;7.70;;;8.50;99.90;;;;;;5016314;28;20477;-66
2021/11/16 14:34:12;;;;;;;9.23;7.60;;;8.50;99.90;;;;;;5015745;28;20457;-66
2021/11/16 14:36:42;;;;;;;11.03;8.40;;;8.60;99.90;;;;;;5018818;28;20458;-66
2021/11/16 14:39:11;;;;;;;8.20;7.30;;;8.60;99.90;;;;;;5019571;28;20444;-66
2021/11/16 14:41:44;;;;;;;10.73;8.50;;;8.60;99.90;;;;;;5019640;28;20480;-66
2021/11/16 14:44:13;;;;;;;10.33;8.90;;;8.50;99.90;;;;;;5020933;28;20794;-65
2021/11/16 14:46:41;;;;;;;9.40;8.17;;;8.50;99.90;;;;;;5020356;28;20515;-66
2021/11/16 14:49:08;;;;;;;8.90;8.00;;;8.50;99.90;;;;;;5020834;28;20453;-65
2021/11/16 14:51:40;;;;;;;9.20;8.20;;;8.50;99.90;;;;;;5020018;28;20469;-65
2021/11/16 14:54:10;;;;;;;10.07;8.20;;;8.40;99.90;;;;;;5020458;28;20433;-66
2021/11/16 14:56:40;;;;;;;10.13;8.40;;;8.40;99.90;;;;;;5020824;28;20487;-66
2021/11/16 14:59:10;;;;;;;11.60;7.80;;;8.40;99.90;;;;;;5021317;28;20873;-66
2021/11/16 15:01:40;;;;;;;10.10;9.00;;;8.40;99.90;;;;;;5037262;28;20485;-66
2021/11/16 15:04:12;;;;;;;9.63;8.17;;;8.40;99.90;;;;;;5027416;28;20448;-66
2021/11/16 15:06:39;;;;;;;12.97;8.47;;;8.30;99.90;;;;;;5019530;28;20441;-66
2021/11/16 15:09:08;;;;;;;10.57;8.20;;;8.30;99.90;;;;;;5019036;28;20458;-66
2021/11/16 15:11:35;;;;;;;11.30;10.20;;;8.40;99.90;;;;;;5019162;28;20472;-66
2021/11/16 15:14:09;;;;;;;13.57;10.50;;;8.30;99.90;;;;;;5018919;28;20460;-66
2021/11/16 15:16:37;;;;;;;12.33;9.50;;;8.40;99.90;;;;;;5019358;28;20461;-65
2021/11/16 15:19:09;;;;;;;10.43;8.70;;;8.40;99.90;;;;;;5019153;28;20449;-65
2021/11/16 15:21:39;;;;;;;16.07;9.57;;;8.30;99.90;;;;;;5032062;28;20473;-66
2021/11/16 15:24:26;;;;;;;14.70;10.90;;;8.30;99.90;;;;;;5026276;28;20483;-65
2021/11/16 15:26:53;;;;;;;15.80;9.87;;;8.20;99.90;;;;;;5019160;28;20441;-65
2021/11/16 15:29:22;;;;;;;12.00;9.10;;;8.10;99.90;;;;;;5026850;28;20453;-66
2021/11/16 15:31:51;;;;;;;14.97;8.73;;;8.00;99.90;;;;;;5029306;28;20469;-64
2021/11/16 15:34:18;;;;;;;15.03;8.63;;;8.00;99.90;;;;;;5020299;28;20460;-64
2021/11/16 15:36:46;;;;;;;10.80;8.47;;;8.30;99.90;;;;;;5028160;28;20457;-63
2021/11/16 15:39:17;;;;;;;11.97;8.40;;;8.80;99.90;;;;;;5029533;28;20507;-64
2021/11/16 15:41:48;;;;;;;10.20;8.47;;;9.10;99.90;;;;;;5019595;28;20481;-67
2021/11/16 15:47:18;;;;;;;12.73;9.80;;;9.20;99.90;;;;;;5015887;28;20445;-67
2021/11/16 15:58:12;;;;;;;10.70;9.43;;;8.70;99.90;;;;;;5018034;28;20425;-66
2021/11/16 16:00:40;;;;;;;13.17;10.20;;;8.60;99.90;;;;;;5017637;28;20491;-66
2021/11/16 16:03:11;;;;;;;16.60;10.63;;;8.50;99.90;;;;;;5017819;28;20462;-66
2021/11/16 16:05:38;;;;;;;18.10;11.23;;;8.50;99.90;;;;;;5018352;28;20450;-67
2021/11/16 16:08:08;;;;;;;19.50;12.77;;;8.40;99.90;;;;;;5017705;28;20441;-66
2021/11/16 16:10:37;;;;;;;17.30;12.50;;;8.30;99.90;;;;;;5018000;28;21011;-67
2021/11/16 16:13:05;;;;;;;21.27;13.47;;;8.30;99.90;;;;;;5017490;28;20457;-66
2021/11/16 16:15:34;;;;;;;16.00;12.17;;;8.20;99.90;;;;;;5017097;28;20818;-67
2021/11/16 16:18:13;;;;;;;18.67;12.40;;;8.10;99.90;;;;;;5017422;28;20449;-67
2021/11/16 16:20:40;;;;;;;16.30;13.00;;;8.10;99.90;;;;;;5017430;28;20987;-68
2021/11/16 16:23:08;;;;;;;16.03;12.00;;;8.20;99.90;;;;;;5017383;28;20501;-68
2021/11/16 16:25:35;;;;;;;17.53;12.50;;;8.10;99.90;;;;;;5017567;28;20441;-66
2021/11/16 16:28:02;;;;;;;17.33;13.13;;;8.20;99.90;;;;;;5017211;28;20921;-67
2021/11/16 16:30:28;;;;;;;17.37;13.57;;;8.10;99.90;;;;;;5020416;28;20488;-66
2021/11/16 16:32:56;;;;;;;18.87;13.00;;;8.10;99.90;;;;;;5020252;28;20456;-66
2021/11/16 16:35:25;;;;;;;20.77;14.07;;;8.00;99.90;;;;;;5017490;28;20460;-66
2021/11/16 16:37:52;;;;;;;20.77;13.70;;;8.00;99.90;;;;;;5017253;28;20453;-65
2021/11/16 16:40:18;;;;;;;23.07;14.30;;;8.00;99.90;;;;;;5017252;28;20462;-65
2021/11/16 16:42:45;;;;;;;20.03;13.30;;;8.00;99.90;;;;;;5017915;28;20488;-65
2021/11/16 16:45:12;;;;;;;19.37;12.77;;;8.00;99.90;;;;;;5017927;28;20437;-67
2021/11/16 16:47:38;;;;;;;20.67;13.90;;;8.00;99.90;;;;;;5016870;28;20810;-66
2021/11/16 16:50:07;;;;;;;20.33;14.33;;;8.00;99.90;;;;;;5021117;28;20963;-66
2021/11/16 16:52:36;;;;;;;19.97;12.40;;;8.00;99.90;;;;;;5018920;28;20470;-66
2021/11/16 16:55:03;;;;;;;18.93;13.40;;;8.00;99.90;;;;;;5017130;28;20465;-66
2021/11/16 16:57:33;;;;;;;18.23;13.23;;;8.00;99.90;;;;;;5017222;28;20457;-66
2021/11/16 17:00:00;;;;;;;18.13;12.60;;;8.00;99.90;;;;;;5019037;28;20511;-67
2021/11/16 17:02:27;;;;;;;18.97;13.17;;;8.00;99.90;;;;;;5035054;28;20485;-67
2021/11/16 17:04:57;;;;;;;16.80;11.60;;;8.00;99.90;;;;;;5026349;28;20454;-67
2021/11/16 17:07:24;;;;;;;17.67;13.70;;;8.00;99.90;;;;;;5019482;28;20499;-69
2021/11/16 17:09:52;;;;;;;20.90;12.23;;;8.00;99.90;;;;;;5023002;28;20434;-68
2021/11/16 17:12:21;;;;;;;16.60;12.50;;;8.00;99.90;;;;;;5029502;28;20470;-69
2021/11/16 17:14:50;;;;;;;19.73;13.43;;;8.10;99.90;;;;;;5019355;28;20449;-67
2021/11/16 17:17:18;;;;;;;16.93;12.10;;;8.10;99.90;;;;;;5024082;28;20457;-67
2021/11/16 17:19:46;;;;;;;17.50;11.43;;;8.10;99.90;;;;;;5018822;28;20448;-67
2021/11/16 17:22:14;;;;;;;15.77;11.73;;;8.10;99.90;;;;;;5016494;28;20504;-68
2021/11/16 17:24:41;;;;;;;15.40;11.90;;;8.00;99.90;;;;;;5016861;28;20465;-68
2021/11/16 17:27:16;;;;;;;17.07;12.70;;;8.00;99.90;;;;;;5017268;28;20948;-67
2021/11/16 17:29:42;;;;;;;17.60;14.43;;;8.00;99.90;;;;;;5017435;28;20441;-67
2021/11/16 17:32:10;;;;;;;18.93;13.20;;;8.00;99.90;;;;;;5016979;28;20481;-67
2021/11/16 17:34:39;;;;;;;15.00;11.20;;;8.00;99.90;;;;;;5020965;28;20437;-67
2021/11/16 17:37:06;;;;;;;18.97;14.20;;;8.10;99.90;;;;;;5037091;28;20442;-67
2021/11/16 17:39:33;;;;;;;16.27;12.63;;;8.10;99.90;;;;;;5018732;28;20801;-67
2021/11/16 17:42:01;;;;;;;17.90;12.70;;;8.10;99.90;;;;;;5017296;28;21007;-67
2021/11/16 17:44:29;;;;;;;15.57;12.47;;;8.10;99.90;;;;;;5017318;28;20459;-67
2021/11/16 17:46:59;;;;;;;17.00;12.47;;;8.10;99.90;;;;;;5017711;28;20464;-66
2021/11/16 17:49:27;;;;;;;13.10;10.97;;;8.00;99.90;;;;;;5017386;28;20467;-66
2021/11/16 17:51:55;;;;;;;16.00;11.40;;;8.10;99.90;;;;;;5026682;28;20484;-67
2021/11/16 17:54:24;;;;;;;17.00;12.80;;;8.00;99.90;;;;;;5017625;28;20453;-67
2021/11/16 17:56:52;;;;;;;17.00;13.47;;;8.10;99.90;;;;;;5016949;28;20464;-68
2021/11/16 17:59:19;;;;;;;24.90;15.60;;;8.10;99.90;;;;;;5016762;28;20492;-67
2021/11/16 18:01:48;;;;;;;15.80;11.53;;;8.10;99.90;;;;;;5016014;28;20485;-66
2021/11/16 18:04:24;;;;;;;15.90;12.00;;;8.10;99.90;;;;;;5016338;28;20821;-66
2021/11/16 18:09:36;;;;;;;16.30;12.10;;;8.20;99.90;;;;;;5029111;28;20455;-67
2021/11/16 18:12:04;;;;;;;15.07;12.53;;;8.20;99.90;;;;;;5015670;28;20531;-67
2021/11/16 18:14:30;;;;;;;17.83;12.90;;;8.20;99.90;;;;;;5015993;28;20453;-67